AFR87PQ LFPG-LFBO
Flight info
| Callsign | AFR87PQ |
|---|---|
| Flight time | 1h 2m |
| Altitude | 35000 |
| Route | ERIXU DCT ETAMO DCT GUERE DCT NARAK |
| Aircraft | A320/M-SDE2E3FGIJ1RWY/HB1 |
Departure
| Time | 2026-05-07 16:07 |
|---|---|
| Airport | Charles de Gaulle International Airport (LFPG) |
Arrival
| Time | 2026-05-07 17:09 |
|---|---|
| Airport | Toulouse-Blagnac Airport (LFBO) |
| Time | Latitude | Longitude | Altitude | Speed | Heading |
|---|---|---|---|---|---|
| 2026-05-07 16:07 | 49.02401 | 2.57509 | 1910 ft | 163 kts | 84° |
| 2026-05-07 16:07 | 49.02478 | 2.58979 | 2551 ft | 162 kts | 85° |
| 2026-05-07 16:07 | 49.02566 | 2.60691 | 3229 ft | 162 kts | 85° |
| 2026-05-07 16:08 | 49.02655 | 2.62423 | 3802 ft | 170 kts | 85° |
| 2026-05-07 16:08 | 49.02756 | 2.64340 | 4128 ft | 193 kts | 85° |
| 2026-05-07 16:08 | 49.02870 | 2.66504 | 4419 ft | 218 kts | 85° |
| 2026-05-07 16:08 | 49.02999 | 2.68926 | 4844 ft | 242 kts | 85° |
| 2026-05-07 16:09 | 49.03141 | 2.71602 | 5338 ft | 263 kts | 85° |
| 2026-05-07 16:09 | 49.03290 | 2.74433 | 6181 ft | 271 kts | 86° |
| 2026-05-07 16:09 | 49.03371 | 2.77277 | 7039 ft | 275 kts | 97° |
| 2026-05-07 16:09 | 49.02765 | 2.80030 | 7872 ft | 278 kts | 124° |
| 2026-05-07 16:10 | 49.01392 | 2.82081 | 8727 ft | 280 kts | 151° |
| 2026-05-07 16:10 | 48.99540 | 2.82982 | 9608 ft | 283 kts | 178° |
| 2026-05-07 16:10 | 48.97591 | 2.82552 | 10309 ft | 292 kts | 201° |
| 2026-05-07 16:10 | 48.95832 | 2.80845 | 10620 ft | 313 kts | 225° |
| 2026-05-07 16:11 | 48.94300 | 2.78421 | 11255 ft | 321 kts | 226° |
| 2026-05-07 16:11 | 48.92742 | 2.75950 | 12054 ft | 325 kts | 226° |
| 2026-05-07 16:11 | 48.91163 | 2.73468 | 12876 ft | 328 kts | 226° |
| 2026-05-07 16:11 | 48.89563 | 2.70973 | 13685 ft | 331 kts | 226° |
| 2026-05-07 16:12 | 48.87961 | 2.68493 | 14403 ft | 334 kts | 226° |
| 2026-05-07 16:12 | 48.86322 | 2.65967 | 15095 ft | 337 kts | 226° |
| 2026-05-07 16:12 | 48.84669 | 2.63416 | 15779 ft | 340 kts | 227° |
| 2026-05-07 16:12 | 48.82929 | 2.60967 | 16439 ft | 345 kts | 215° |
| 2026-05-07 16:13 | 48.80793 | 2.59251 | 17107 ft | 349 kts | 207° |
| 2026-05-07 16:13 | 48.78595 | 2.57640 | 17797 ft | 352 kts | 207° |
| 2026-05-07 16:13 | 48.76373 | 2.56018 | 18453 ft | 356 kts | 207° |
| 2026-05-07 16:13 | 48.74139 | 2.54374 | 19030 ft | 359 kts | 207° |
| 2026-05-07 16:14 | 48.71888 | 2.52703 | 19613 ft | 362 kts | 208° |
| 2026-05-07 16:14 | 48.69623 | 2.51016 | 20188 ft | 364 kts | 208° |
| 2026-05-07 16:14 | 48.67371 | 2.49335 | 20756 ft | 367 kts | 208° |
| 2026-05-07 16:14 | 48.65073 | 2.47615 | 21325 ft | 370 kts | 208° |
| 2026-05-07 16:15 | 48.62756 | 2.45876 | 21876 ft | 373 kts | 208° |
| 2026-05-07 16:15 | 48.60427 | 2.44130 | 22418 ft | 375 kts | 208° |
| 2026-05-07 16:15 | 48.58076 | 2.42371 | 22941 ft | 378 kts | 208° |
| 2026-05-07 16:15 | 48.55707 | 2.40606 | 23474 ft | 381 kts | 208° |
| 2026-05-07 16:16 | 48.53319 | 2.38832 | 23933 ft | 384 kts | 208° |
| 2026-05-07 16:16 | 48.50912 | 2.37049 | 24363 ft | 387 kts | 207° |
| 2026-05-07 16:16 | 48.48523 | 2.35284 | 24797 ft | 389 kts | 207° |
| 2026-05-07 16:16 | 48.46084 | 2.33484 | 25236 ft | 391 kts | 207° |
| 2026-05-07 16:17 | 48.43637 | 2.31675 | 25654 ft | 393 kts | 207° |
| 2026-05-07 16:17 | 48.41171 | 2.29851 | 26062 ft | 396 kts | 207° |
| 2026-05-07 16:17 | 48.38695 | 2.28024 | 26489 ft | 398 kts | 207° |
| 2026-05-07 16:17 | 48.36201 | 2.26189 | 26906 ft | 400 kts | 207° |
| 2026-05-07 16:18 | 48.33693 | 2.24343 | 27311 ft | 402 kts | 207° |
| 2026-05-07 16:18 | 48.31116 | 2.22805 | 27688 ft | 407 kts | 198° |
| 2026-05-07 16:18 | 48.28334 | 2.21958 | 28071 ft | 411 kts | 187° |
| 2026-05-07 16:18 | 48.25460 | 2.21888 | 28453 ft | 416 kts | 177° |
| 2026-05-07 16:19 | 48.22577 | 2.22516 | 28828 ft | 420 kts | 172° |
| 2026-05-07 16:19 | 48.19687 | 2.23240 | 29194 ft | 422 kts | 173° |
| 2026-05-07 16:19 | 48.16782 | 2.23955 | 29572 ft | 424 kts | 173° |
| 2026-05-07 16:19 | 48.13859 | 2.24660 | 29945 ft | 427 kts | 173° |
| 2026-05-07 16:20 | 48.10921 | 2.25360 | 30270 ft | 429 kts | 173° |
| 2026-05-07 16:20 | 48.07963 | 2.25981 | 30560 ft | 429 kts | 178° |
| 2026-05-07 16:20 | 48.04982 | 2.26187 | 30901 ft | 429 kts | 180° |
| 2026-05-07 16:20 | 48.01990 | 2.26371 | 31214 ft | 431 kts | 180° |
| 2026-05-07 16:21 | 47.99031 | 2.26560 | 31507 ft | 432 kts | 180° |
| 2026-05-07 16:21 | 47.96034 | 2.26755 | 31917 ft | 431 kts | 180° |
| 2026-05-07 16:21 | 47.93039 | 2.26952 | 32319 ft | 430 kts | 180° |
| 2026-05-07 16:21 | 47.90057 | 2.27145 | 32715 ft | 429 kts | 180° |
| 2026-05-07 16:22 | 47.87076 | 2.27332 | 33112 ft | 428 kts | 180° |
| 2026-05-07 16:22 | 47.84105 | 2.27514 | 33512 ft | 427 kts | 180° |
| 2026-05-07 16:22 | 47.81135 | 2.27698 | 33900 ft | 426 kts | 180° |
| 2026-05-07 16:22 | 47.78176 | 2.27886 | 34239 ft | 426 kts | 180° |
| 2026-05-07 16:23 | 47.75214 | 2.28076 | 34539 ft | 425 kts | 181° |
| 2026-05-07 16:23 | 47.72299 | 2.28266 | 34828 ft | 425 kts | 181° |
| 2026-05-07 16:23 | 47.69347 | 2.28459 | 35111 ft | 425 kts | 181° |
| 2026-05-07 16:23 | 47.66396 | 2.28647 | 35381 ft | 425 kts | 181° |
| 2026-05-07 16:24 | 47.63442 | 2.28827 | 35649 ft | 425 kts | 181° |
| 2026-05-07 16:24 | 47.60490 | 2.29008 | 35909 ft | 425 kts | 181° |
| 2026-05-07 16:24 | 47.57538 | 2.29190 | 36170 ft | 425 kts | 181° |
| 2026-05-07 16:24 | 47.54589 | 2.29377 | 36419 ft | 424 kts | 181° |
| 2026-05-07 16:25 | 47.51635 | 2.29563 | 36660 ft | 424 kts | 181° |
| 2026-05-07 16:25 | 47.48729 | 2.29742 | 36902 ft | 424 kts | 181° |
| 2026-05-07 16:25 | 47.45778 | 2.29923 | 36996 ft | 423 kts | 181° |
| 2026-05-07 16:26 | 47.39854 | 2.30295 | 37009 ft | 428 kts | 181° |
| 2026-05-07 16:26 | 47.33896 | 2.30668 | 36998 ft | 428 kts | 181° |
| 2026-05-07 16:27 | 47.27941 | 2.31038 | 37004 ft | 428 kts | 181° |
| 2026-05-07 16:27 | 47.22027 | 2.31404 | 37001 ft | 428 kts | 181° |
| 2026-05-07 16:28 | 47.16072 | 2.31770 | 36999 ft | 428 kts | 181° |
| 2026-05-07 16:28 | 47.10115 | 2.32143 | 36992 ft | 428 kts | 181° |
| 2026-05-07 16:29 | 47.04166 | 2.32517 | 37002 ft | 428 kts | 181° |
| 2026-05-07 16:29 | 46.98250 | 2.32879 | 37004 ft | 428 kts | 181° |
| 2026-05-07 16:30 | 46.92301 | 2.33241 | 36999 ft | 428 kts | 181° |
| 2026-05-07 16:30 | 46.86355 | 2.33604 | 37009 ft | 427 kts | 182° |
| 2026-05-07 16:31 | 46.80599 | 2.32440 | 37012 ft | 418 kts | 198° |
| 2026-05-07 16:31 | 46.74975 | 2.30241 | 37010 ft | 419 kts | 198° |
| 2026-05-07 16:32 | 46.69339 | 2.28085 | 37009 ft | 419 kts | 198° |
| 2026-05-07 16:32 | 46.63705 | 2.25930 | 37008 ft | 419 kts | 198° |
| 2026-05-07 16:33 | 46.58072 | 2.23770 | 37010 ft | 419 kts | 198° |
| 2026-05-07 16:33 | 46.52473 | 2.21635 | 36997 ft | 418 kts | 198° |
| 2026-05-07 16:34 | 46.46843 | 2.19497 | 37005 ft | 418 kts | 198° |
| 2026-05-07 16:34 | 46.41222 | 2.17361 | 37008 ft | 417 kts | 198° |
| 2026-05-07 16:35 | 46.35607 | 2.15217 | 37001 ft | 417 kts | 198° |
| 2026-05-07 16:35 | 46.30034 | 2.13100 | 36995 ft | 417 kts | 198° |
| 2026-05-07 16:36 | 46.24420 | 2.10987 | 36998 ft | 417 kts | 197° |
| 2026-05-07 16:36 | 46.18796 | 2.08949 | 36995 ft | 418 kts | 193° |
| 2026-05-07 16:37 | 46.13015 | 2.07823 | 36981 ft | 419 kts | 191° |
| 2026-05-07 16:37 | 46.07232 | 2.06757 | 36989 ft | 419 kts | 191° |
| 2026-05-07 16:38 | 46.01494 | 2.05695 | 36984 ft | 419 kts | 191° |
| 2026-05-07 16:38 | 45.95717 | 2.04633 | 36982 ft | 418 kts | 191° |
| 2026-05-07 16:39 | 45.89946 | 2.03573 | 36974 ft | 418 kts | 191° |
| 2026-05-07 16:39 | 45.84177 | 2.02517 | 36977 ft | 418 kts | 190° |
| 2026-05-07 16:40 | 45.78415 | 2.01458 | 36977 ft | 417 kts | 191° |
| 2026-05-07 16:40 | 45.72696 | 2.00404 | 36965 ft | 417 kts | 190° |
| 2026-05-07 16:41 | 45.66939 | 1.99356 | 36969 ft | 417 kts | 190° |
| 2026-05-07 16:41 | 45.61181 | 1.98305 | 36969 ft | 417 kts | 190° |
| 2026-05-07 16:42 | 45.55428 | 1.97257 | 36957 ft | 417 kts | 190° |
| 2026-05-07 16:42 | 45.49720 | 1.96219 | 36962 ft | 416 kts | 190° |
| 2026-05-07 16:43 | 45.43968 | 1.95180 | 36647 ft | 416 kts | 190° |
| 2026-05-07 16:43 | 45.41102 | 1.94664 | 36389 ft | 415 kts | 190° |
| 2026-05-07 16:43 | 45.38233 | 1.94145 | 36127 ft | 415 kts | 190° |
| 2026-05-07 16:43 | 45.35366 | 1.93624 | 35869 ft | 415 kts | 190° |
| 2026-05-07 16:44 | 45.32500 | 1.93106 | 35630 ft | 415 kts | 190° |
| 2026-05-07 16:44 | 45.29635 | 1.92592 | 35384 ft | 415 kts | 190° |
| 2026-05-07 16:44 | 45.26813 | 1.92088 | 35136 ft | 414 kts | 190° |
| 2026-05-07 16:44 | 45.23960 | 1.91580 | 34895 ft | 412 kts | 190° |
| 2026-05-07 16:45 | 45.21128 | 1.91074 | 34653 ft | 410 kts | 190° |
| 2026-05-07 16:45 | 45.18304 | 1.90567 | 34411 ft | 407 kts | 190° |
| 2026-05-07 16:45 | 45.15505 | 1.90065 | 34167 ft | 405 kts | 190° |
| 2026-05-07 16:45 | 45.12726 | 1.89567 | 33798 ft | 400 kts | 190° |
| 2026-05-07 16:46 | 45.09976 | 1.89074 | 33281 ft | 396 kts | 190° |
| 2026-05-07 16:46 | 45.07257 | 1.88587 | 32804 ft | 392 kts | 190° |
| 2026-05-07 16:46 | 45.04566 | 1.88106 | 32312 ft | 388 kts | 190° |
| 2026-05-07 16:46 | 45.01936 | 1.87636 | 31835 ft | 384 kts | 190° |
| 2026-05-07 16:47 | 44.99296 | 1.87164 | 31368 ft | 381 kts | 190° |
| 2026-05-07 16:47 | 44.96679 | 1.86696 | 30899 ft | 377 kts | 190° |
| 2026-05-07 16:47 | 44.94084 | 1.86236 | 30448 ft | 374 kts | 190° |
| 2026-05-07 16:47 | 44.91512 | 1.85782 | 29987 ft | 371 kts | 190° |
| 2026-05-07 16:48 | 44.88968 | 1.85332 | 29501 ft | 366 kts | 190° |
| 2026-05-07 16:48 | 44.86459 | 1.84888 | 29078 ft | 361 kts | 190° |
| 2026-05-07 16:48 | 44.83999 | 1.84457 | 28890 ft | 350 kts | 190° |
| 2026-05-07 16:48 | 44.81657 | 1.84050 | 28752 ft | 340 kts | 190° |
| 2026-05-07 16:49 | 44.79251 | 1.83625 | 28480 ft | 357 kts | 190° |
| 2026-05-07 16:49 | 44.76769 | 1.83184 | 28194 ft | 359 kts | 190° |
| 2026-05-07 16:49 | 44.74309 | 1.82755 | 27798 ft | 353 kts | 189° |
| 2026-05-07 16:49 | 44.71887 | 1.82337 | 27390 ft | 348 kts | 189° |
| 2026-05-07 16:50 | 44.69496 | 1.81926 | 27008 ft | 344 kts | 189° |
| 2026-05-07 16:50 | 44.67136 | 1.81517 | 26620 ft | 340 kts | 189° |
| 2026-05-07 16:50 | 44.64803 | 1.81112 | 26237 ft | 336 kts | 189° |
| 2026-05-07 16:50 | 44.62526 | 1.80716 | 25847 ft | 333 kts | 189° |
| 2026-05-07 16:51 | 44.60241 | 1.80319 | 25456 ft | 330 kts | 189° |
| 2026-05-07 16:51 | 44.57972 | 1.79927 | 25064 ft | 327 kts | 189° |
| 2026-05-07 16:51 | 44.55721 | 1.79538 | 24660 ft | 325 kts | 189° |
| 2026-05-07 16:51 | 44.53481 | 1.79148 | 24260 ft | 324 kts | 189° |
| 2026-05-07 16:52 | 44.51251 | 1.78760 | 23840 ft | 322 kts | 189° |
| 2026-05-07 16:52 | 44.49028 | 1.78376 | 23414 ft | 322 kts | 189° |
| 2026-05-07 16:52 | 44.46813 | 1.77995 | 22965 ft | 320 kts | 189° |
| 2026-05-07 16:52 | 44.44612 | 1.77615 | 22551 ft | 318 kts | 189° |
| 2026-05-07 16:53 | 44.42426 | 1.77237 | 22148 ft | 316 kts | 189° |
| 2026-05-07 16:53 | 44.40273 | 1.76868 | 21744 ft | 316 kts | 189° |
| 2026-05-07 16:53 | 44.38100 | 1.76494 | 21340 ft | 314 kts | 189° |
| 2026-05-07 16:53 | 44.35934 | 1.76123 | 20945 ft | 313 kts | 189° |
| 2026-05-07 16:54 | 44.33778 | 1.75754 | 20552 ft | 312 kts | 189° |
| 2026-05-07 16:54 | 44.31630 | 1.75384 | 20155 ft | 311 kts | 189° |
| 2026-05-07 16:54 | 44.29485 | 1.75012 | 19769 ft | 310 kts | 189° |
| 2026-05-07 16:54 | 44.27343 | 1.74642 | 19377 ft | 310 kts | 189° |
| 2026-05-07 16:55 | 44.25204 | 1.74275 | 18988 ft | 310 kts | 189° |
| 2026-05-07 16:55 | 44.23089 | 1.73915 | 18606 ft | 310 kts | 189° |
| 2026-05-07 16:55 | 44.20948 | 1.73549 | 18207 ft | 310 kts | 189° |
| 2026-05-07 16:55 | 44.18806 | 1.73184 | 17790 ft | 309 kts | 189° |
| 2026-05-07 16:56 | 44.16675 | 1.72820 | 17408 ft | 308 kts | 189° |
| 2026-05-07 16:56 | 44.14551 | 1.72455 | 17027 ft | 307 kts | 189° |
| 2026-05-07 16:56 | 44.10288 | 1.71724 | 16263 ft | 311 kts | 189° |
| 2026-05-07 16:57 | 44.08142 | 1.71358 | 15886 ft | 311 kts | 189° |
| 2026-05-07 16:57 | 44.06027 | 1.71000 | 15517 ft | 310 kts | 188° |
| 2026-05-07 16:57 | 44.03891 | 1.70638 | 15149 ft | 309 kts | 188° |
| 2026-05-07 16:57 | 44.01760 | 1.70278 | 14769 ft | 308 kts | 188° |
| 2026-05-07 16:58 | 43.99630 | 1.69913 | 14398 ft | 308 kts | 188° |
| 2026-05-07 16:58 | 43.97505 | 1.69551 | 14022 ft | 308 kts | 188° |
| 2026-05-07 16:58 | 43.95381 | 1.69191 | 13633 ft | 307 kts | 188° |
| 2026-05-07 16:58 | 43.93259 | 1.68834 | 13233 ft | 306 kts | 188° |
| 2026-05-07 16:59 | 43.91150 | 1.68481 | 12848 ft | 305 kts | 188° |
| 2026-05-07 16:59 | 43.89053 | 1.68129 | 12483 ft | 302 kts | 188° |
| 2026-05-07 16:59 | 43.86999 | 1.67787 | 12126 ft | 300 kts | 188° |
| 2026-05-07 16:59 | 43.84931 | 1.67437 | 11735 ft | 300 kts | 188° |
| 2026-05-07 17:00 | 43.82863 | 1.67083 | 11329 ft | 299 kts | 188° |
| 2026-05-07 17:00 | 43.80802 | 1.66731 | 10932 ft | 298 kts | 188° |
| 2026-05-07 17:00 | 43.78751 | 1.66385 | 10549 ft | 296 kts | 188° |
| 2026-05-07 17:00 | 43.76705 | 1.66042 | 10171 ft | 295 kts | 188° |
| 2026-05-07 17:01 | 43.74673 | 1.65702 | 9792 ft | 294 kts | 188° |
| 2026-05-07 17:01 | 43.72674 | 1.65365 | 9578 ft | 285 kts | 188° |
| 2026-05-07 17:01 | 43.70732 | 1.65037 | 9140 ft | 286 kts | 188° |
| 2026-05-07 17:01 | 43.68756 | 1.64705 | 8699 ft | 286 kts | 188° |
| 2026-05-07 17:02 | 43.66777 | 1.64374 | 8263 ft | 286 kts | 188° |
| 2026-05-07 17:02 | 43.64804 | 1.64043 | 7838 ft | 286 kts | 188° |
| 2026-05-07 17:02 | 43.62832 | 1.63714 | 7407 ft | 285 kts | 188° |
| 2026-05-07 17:02 | 43.60860 | 1.63386 | 6989 ft | 285 kts | 187° |
| 2026-05-07 17:03 | 43.58898 | 1.63060 | 6579 ft | 284 kts | 187° |
| 2026-05-07 17:03 | 43.56940 | 1.62737 | 6165 ft | 283 kts | 187° |
| 2026-05-07 17:03 | 43.54988 | 1.62412 | 5751 ft | 281 kts | 187° |
| 2026-05-07 17:03 | 43.53076 | 1.62092 | 5300 ft | 270 kts | 187° |
| 2026-05-07 17:04 | 43.51259 | 1.61774 | 4619 ft | 257 kts | 188° |
| 2026-05-07 17:04 | 43.49545 | 1.61281 | 4272 ft | 251 kts | 202° |
| 2026-05-07 17:04 | 43.48196 | 1.59896 | 4114 ft | 240 kts | 233° |
| 2026-05-07 17:04 | 43.47505 | 1.57839 | 3839 ft | 235 kts | 254° |
| 2026-05-07 17:05 | 43.47104 | 1.55718 | 3719 ft | 225 kts | 259° |
| 2026-05-07 17:05 | 43.47124 | 1.53631 | 3611 ft | 215 kts | 288° |
| 2026-05-07 17:05 | 43.47931 | 1.52004 | 3535 ft | 204 kts | 324° |
| 2026-05-07 17:05 | 43.49089 | 1.50919 | 3408 ft | 200 kts | 324° |
| 2026-05-07 17:06 | 43.50166 | 1.49822 | 3365 ft | 187 kts | 327° |
| 2026-05-07 17:06 | 43.51236 | 1.48800 | 3139 ft | 188 kts | 327° |
| 2026-05-07 17:06 | 43.52293 | 1.47742 | 2838 ft | 187 kts | 325° |
| 2026-05-07 17:06 | 43.53296 | 1.46675 | 2544 ft | 181 kts | 320° |
| 2026-05-07 17:07 | 43.54250 | 1.45616 | 2337 ft | 173 kts | 323° |
| 2026-05-07 17:07 | 43.55170 | 1.44642 | 2166 ft | 158 kts | 326° |
| 2026-05-07 17:07 | 43.56029 | 1.43794 | 1918 ft | 149 kts | 327° |
| 2026-05-07 17:07 | 43.56839 | 1.42928 | 1710 ft | 145 kts | 323° |
| 2026-05-07 17:08 | 43.57628 | 1.42077 | 1417 ft | 143 kts | 325° |
| 2026-05-07 17:08 | 43.58413 | 1.41289 | 1259 ft | 138 kts | 327° |
| 2026-05-07 17:08 | 43.59182 | 1.40499 | 1147 ft | 137 kts | 324° |
| 2026-05-07 17:08 | 43.59942 | 1.39704 | 965 ft | 137 kts | 325° |
| 2026-05-07 17:09 | 43.60707 | 1.38914 | 749 ft | 136 kts | 325° |
| 2026-05-07 17:09 | 43.61470 | 1.38116 | 576 ft | 139 kts | 326° |
| 2026-05-07 17:09 | 43.62215 | 1.37350 | 486 ft | 115 kts | 322° |
| 2026-05-07 17:09 | 43.62609 | 1.36934 | 492 ft | 29 kts | 323° |
| 2026-05-07 17:10 | 43.62745 | 1.36792 | 489 ft | 22 kts | 323° |
| 2026-05-07 17:10 | 43.62873 | 1.36660 | 485 ft | 24 kts | 323° |
| 2026-05-07 17:10 | 43.62979 | 1.36624 | 494 ft | 13 kts | 3° |
| 2026-05-07 17:10 | 43.63034 | 1.36657 | 491 ft | 6 kts | 44° |
| 2026-05-07 17:11 | 43.63039 | 1.36665 | 490 ft | 0 kts | 50° |
| 2026-05-07 17:12 | 43.63044 | 1.36673 | 486 ft | 5 kts | 50° |
| 2026-05-07 17:12 | 43.63069 | 1.36758 | 494 ft | 13 kts | 104° |
| 2026-05-07 17:12 | 43.62996 | 1.36848 | 490 ft | 15 kts | 143° |
| 2026-05-07 17:12 | 43.62909 | 1.36932 | 488 ft | 16 kts | 144° |
| 2026-05-07 17:13 | 43.62863 | 1.36981 | 492 ft | 9 kts | 142° |
| 2026-05-07 17:13 | 43.62829 | 1.37045 | 487 ft | 10 kts | 95° |
| 2026-05-07 17:13 | 43.62875 | 1.37141 | 490 ft | 14 kts | 53° |
| 2026-05-07 17:13 | 43.62900 | 1.37248 | 487 ft | 13 kts | 116° |
| 2026-05-07 17:14 | 43.62862 | 1.37324 | 490 ft | 5 kts | 60° |
| 2026-05-07 17:14 | 43.62898 | 1.37373 | 491 ft | 9 kts | 51° |
| 2026-05-07 17:14 | 43.62912 | 1.37394 | 489 ft | 0 kts | 48° |